createdAt,value
2022-09-21T00:00:05.152Z,8.20
2022-09-21T00:01:38.209Z,8.20
2022-09-21T00:03:11.256Z,8.20
2022-09-21T00:04:44.256Z,8.20
2022-09-21T00:06:19.467Z,8.10
2022-09-21T00:07:53.900Z,8.10
2022-09-21T00:09:27.059Z,8.10
2022-09-21T00:11:00.043Z,8.10
2022-09-21T00:12:33.489Z,8.10
2022-09-21T00:14:10.782Z,8.10
2022-09-21T00:15:42.860Z,8.00
2022-09-21T00:17:15.898Z,8.10
2022-09-21T00:18:49.441Z,8.20
2022-09-21T00:20:22.873Z,8.10
2022-09-21T00:21:56.592Z,8.00
2022-09-21T00:23:30.067Z,8.00
2022-09-21T00:25:03.578Z,8.10
2022-09-21T00:26:36.632Z,8.10
2022-09-21T00:28:08.692Z,8.10
2022-09-21T00:29:41.946Z,8.20
2022-09-21T00:31:15.770Z,8.10
2022-09-21T00:32:48.911Z,8.10
2022-09-21T00:34:21.961Z,8.10
2022-09-21T00:35:54.017Z,8.10
2022-09-21T00:37:27.638Z,8.10
2022-09-21T00:39:03.179Z,8.10
2022-09-21T00:40:36.219Z,8.10
2022-09-21T00:42:11.755Z,8.10
2022-09-21T00:43:48.057Z,8.20
2022-09-21T00:45:22.034Z,8.10
2022-09-21T00:46:59.253Z,8.10
2022-09-21T00:48:32.551Z,8.20
2022-09-21T00:50:11.457Z,8.20
2022-09-21T00:51:44.599Z,8.20
2022-09-21T00:53:17.662Z,8.20
2022-09-21T00:54:54.998Z,8.20
2022-09-21T00:56:27.623Z,8.20
2022-09-21T00:58:05.762Z,8.30
2022-09-21T00:59:40.866Z,8.30
2022-09-21T01:01:16.551Z,8.30
2022-09-21T01:02:49.839Z,8.30
2022-09-21T01:04:22.832Z,8.30
2022-09-21T01:05:56.041Z,8.30
2022-09-21T01:07:33.165Z,8.30
2022-09-21T01:09:06.561Z,8.30
2022-09-21T01:10:56.207Z,8.30
2022-09-21T01:12:45.264Z,8.40
2022-09-21T01:14:41.454Z,8.30
2022-09-21T01:16:18.472Z,8.30
2022-09-21T01:17:59.360Z,8.30
2022-09-21T01:20:10.339Z,8.30
2022-09-21T01:21:55.359Z,8.30
2022-09-21T01:23:51.518Z,8.30
2022-09-21T01:25:35.172Z,8.30
2022-09-21T01:27:36.627Z,8.30
2022-09-21T01:29:21.088Z,8.30
2022-09-21T01:30:55.299Z,8.30
2022-09-21T01:32:34.220Z,8.30
2022-09-21T01:34:09.880Z,8.20
2022-09-21T01:35:48.570Z,8.20
2022-09-21T01:37:25.797Z,8.20
2022-09-21T01:39:05.820Z,8.20
2022-09-21T01:40:42.461Z,8.20
2022-09-21T01:42:16.835Z,8.20
2022-09-21T01:43:55.797Z,8.20
2022-09-21T01:45:34.666Z,8.20
2022-09-21T01:47:12.664Z,8.20
2022-09-21T01:48:49.541Z,8.20
2022-09-21T01:50:22.167Z,8.20
2022-09-21T01:52:01.650Z,8.10
2022-09-21T01:53:37.540Z,8.20
2022-09-21T01:55:14.718Z,8.10
2022-09-21T01:56:51.788Z,8.10
2022-09-21T01:58:32.035Z,8.00
2022-09-21T02:00:07.681Z,7.90
2022-09-21T02:01:50.224Z,7.90
2022-09-21T02:03:29.398Z,7.80
2022-09-21T02:05:04.341Z,7.70
2022-09-21T02:06:39.747Z,7.70
2022-09-21T02:08:13.415Z,7.60
2022-09-21T02:09:48.115Z,7.50
2022-09-21T02:11:21.287Z,7.50
2022-09-21T02:13:01.200Z,7.30
2022-09-21T02:14:36.375Z,7.30
2022-09-21T02:16:29.491Z,7.20
2022-09-21T02:18:08.903Z,7.10
2022-09-21T02:19:46.399Z,7.00
2022-09-21T02:21:26.620Z,6.90
2022-09-21T02:23:06.576Z,6.90
2022-09-21T02:24:43.421Z,6.90
2022-09-21T02:26:23.511Z,6.90
2022-09-21T02:28:02.648Z,6.90
2022-09-21T02:29:48.262Z,7.00
2022-09-21T02:31:30.868Z,7.10
2022-09-21T02:33:11.425Z,7.10
2022-09-21T02:34:47.453Z,7.00
2022-09-21T02:36:29.831Z,7.00
2022-09-21T02:38:09.673Z,7.00
2022-09-21T02:39:50.443Z,6.90
2022-09-21T02:41:28.939Z,6.90
2022-09-21T02:43:07.282Z,6.90
2022-09-21T02:44:42.925Z,6.90
2022-09-21T02:46:21.056Z,6.70
2022-09-21T02:47:59.345Z,6.70
2022-09-21T02:49:38.104Z,6.70
2022-09-21T02:51:14.996Z,6.70
2022-09-21T02:52:48.296Z,6.60
2022-09-21T02:54:25.752Z,6.70
2022-09-21T02:56:02.973Z,6.70
2022-09-21T02:57:37.322Z,6.70
2022-09-21T02:59:11.114Z,6.80
2022-09-21T03:00:44.348Z,6.70
2022-09-21T03:02:17.454Z,6.80
2022-09-21T03:03:50.998Z,6.70
2022-09-21T03:05:26.039Z,6.70
2022-09-21T03:06:59.040Z,6.80
2022-09-21T03:08:32.088Z,6.80
2022-09-21T03:10:06.735Z,6.80
2022-09-21T03:11:42.603Z,6.80
2022-09-21T03:13:15.634Z,6.90
2022-09-21T03:14:49.760Z,6.90
2022-09-21T03:16:24.120Z,6.90
2022-09-21T03:17:57.342Z,7.00
2022-09-21T03:19:30.332Z,7.00
2022-09-21T03:21:05.009Z,7.00
2022-09-21T03:22:38.023Z,7.10
2022-09-21T03:24:11.272Z,7.10
2022-09-21T03:25:45.044Z,7.20
2022-09-21T03:27:20.276Z,7.30
2022-09-21T03:28:54.535Z,7.30
2022-09-21T03:30:27.236Z,7.30
2022-09-21T03:32:00.358Z,7.40
2022-09-21T03:33:33.498Z,7.50
2022-09-21T03:35:08.282Z,7.50
2022-09-21T03:36:42.716Z,7.50
2022-09-21T03:38:16.766Z,7.70
2022-09-21T03:39:49.830Z,7.60
2022-09-21T03:41:22.846Z,7.80
2022-09-21T03:42:56.433Z,7.90
2022-09-21T03:44:29.604Z,7.70
2022-09-21T03:46:02.737Z,7.90
2022-09-21T03:47:35.844Z,7.90
2022-09-21T03:49:08.925Z,7.60
2022-09-21T03:50:42.187Z,7.90
2022-09-21T03:52:16.795Z,8.00
2022-09-21T03:53:49.806Z,8.10
2022-09-21T03:55:22.891Z,8.00
2022-09-21T03:56:55.925Z,8.10
2022-09-21T03:58:29.004Z,8.10
2022-09-21T04:00:03.456Z,8.10
2022-09-21T04:01:37.260Z,8.00
2022-09-21T04:03:10.425Z,8.10
2022-09-21T04:04:43.688Z,8.10
2022-09-21T04:06:16.946Z,8.20
2022-09-21T04:07:51.580Z,8.10
2022-09-21T04:09:24.664Z,8.10
2022-09-21T04:10:57.686Z,8.20
2022-09-21T04:12:31.192Z,8.10
2022-09-21T04:14:05.546Z,8.10
2022-09-21T04:15:38.618Z,8.30
2022-09-21T04:17:12.096Z,8.30
2022-09-21T04:18:45.306Z,8.20
2022-09-21T04:20:18.548Z,8.20
2022-09-21T04:21:52.875Z,8.20
2022-09-21T04:23:27.559Z,8.20
2022-09-21T04:25:01.495Z,8.20
2022-09-21T04:26:36.205Z,8.20
2022-09-21T04:28:09.378Z,8.20
2022-09-21T04:29:42.437Z,8.20
2022-09-21T04:31:14.543Z,8.20
2022-09-21T04:32:47.772Z,8.20
2022-09-21T04:34:19.944Z,8.20
2022-09-21T04:35:56.759Z,8.20
2022-09-21T04:37:30.319Z,8.20
2022-09-21T04:39:05.663Z,8.30
2022-09-21T04:40:38.732Z,8.10
2022-09-21T04:42:12.288Z,8.10
2022-09-21T04:43:46.778Z,8.10
2022-09-21T04:45:19.827Z,8.10
2022-09-21T04:46:52.858Z,8.00
2022-09-21T04:48:25.146Z,7.90
2022-09-21T04:49:58.336Z,8.00
2022-09-21T04:51:31.575Z,7.80
2022-09-21T04:53:05.840Z,7.80
2022-09-21T04:54:40.246Z,7.60
2022-09-21T04:56:16.477Z,7.70
2022-09-21T04:57:49.489Z,7.80
2022-09-21T04:59:22.495Z,7.50
2022-09-21T05:00:56.731Z,7.50
2022-09-21T05:02:29.719Z,7.40
2022-09-21T05:04:03.168Z,7.40
2022-09-21T05:05:36.236Z,7.30
2022-09-21T05:07:09.333Z,7.30
2022-09-21T05:09:00.150Z,7.30
2022-09-21T05:10:34.965Z,7.20
2022-09-21T05:12:07.358Z,7.20
2022-09-21T05:13:40.818Z,7.30
2022-09-21T05:15:13.920Z,7.30
2022-09-21T05:16:49.588Z,7.30
2022-09-21T05:18:22.587Z,7.40
2022-09-21T05:19:55.644Z,7.50
2022-09-21T05:21:29.377Z,7.70
2022-09-21T05:23:03.287Z,7.70
2022-09-21T05:24:36.363Z,7.80
2022-09-21T05:26:10.776Z,7.80
2022-09-21T05:27:43.790Z,8.00
2022-09-21T05:29:17.435Z,8.00
2022-09-21T05:31:16.639Z,8.20
2022-09-21T05:32:58.722Z,8.40
2022-09-21T05:34:45.103Z,8.60
2022-09-21T05:36:34.885Z,8.50
2022-09-21T05:38:14.079Z,8.70
2022-09-21T05:39:47.594Z,8.70
2022-09-21T05:41:22.676Z,8.80
2022-09-21T05:42:56.600Z,8.90
2022-09-21T05:44:30.196Z,9.00
2022-09-21T05:46:08.227Z,9.10
2022-09-21T05:47:50.707Z,9.10
2022-09-21T05:49:34.387Z,9.20
2022-09-21T05:51:19.002Z,9.20
2022-09-21T05:53:02.272Z,9.30
2022-09-21T05:54:46.565Z,9.70
2022-09-21T05:56:32.607Z,9.40
2022-09-21T05:58:14.472Z,9.60
2022-09-21T05:59:55.568Z,9.60
2022-09-21T06:01:41.096Z,9.60
2022-09-21T06:03:38.504Z,9.60
2022-09-21T06:05:13.284Z,9.60
2022-09-21T06:06:46.959Z,9.70
2022-09-21T06:08:20.027Z,9.70
2022-09-21T06:09:53.191Z,9.80
2022-09-21T06:11:27.698Z,9.80
2022-09-21T06:13:00.780Z,9.80
2022-09-21T06:14:34.002Z,9.90
2022-09-21T06:16:08.241Z,10.10
2022-09-21T06:17:41.583Z,10.30
2022-09-21T06:19:14.903Z,10.60
2022-09-21T06:20:48.209Z,10.60
2022-09-21T06:22:21.389Z,10.60
2022-09-21T06:23:54.475Z,10.60
2022-09-21T06:25:27.510Z,10.90
2022-09-21T06:27:01.910Z,10.80
2022-09-21T06:28:34.953Z,10.90
2022-09-21T06:30:09.047Z,11.00
2022-09-21T06:31:42.058Z,11.00
2022-09-21T06:33:20.652Z,11.20
2022-09-21T06:34:54.008Z,11.10
2022-09-21T06:36:27.122Z,11.20
2022-09-21T06:38:00.570Z,11.40
2022-09-21T06:39:33.817Z,11.60
2022-09-21T06:41:07.068Z,11.50
2022-09-21T06:42:41.468Z,11.30
2022-09-21T06:44:14.544Z,11.30
2022-09-21T06:45:54.538Z,11.10
2022-09-21T06:47:27.618Z,10.90
2022-09-21T06:49:00.686Z,11.00
2022-09-21T06:50:34.447Z,11.20
2022-09-21T06:52:08.477Z,11.30
2022-09-21T06:53:41.492Z,11.50
2022-09-21T06:55:15.278Z,11.70
2022-09-21T06:56:48.646Z,11.80
2022-09-21T06:58:23.019Z,11.90
2022-09-21T06:59:56.067Z,12.30
2022-09-21T07:01:29.255Z,12.40
2022-09-21T07:03:02.378Z,12.20
2022-09-21T07:04:35.525Z,12.40
2022-09-21T07:06:11.637Z,12.40
2022-09-21T07:07:44.966Z,12.60
2022-09-21T07:11:11.397Z,12.50
2022-09-21T07:12:44.860Z,12.70
2022-09-21T07:14:20.145Z,12.50
2022-09-21T07:15:53.485Z,12.60
2022-09-21T07:17:26.925Z,12.60
2022-09-21T07:19:10.198Z,13.00
2022-09-21T07:20:43.911Z,12.70
2022-09-21T07:22:16.944Z,12.30
2022-09-21T07:23:49.994Z,12.30
2022-09-21T07:25:23.009Z,12.10
2022-09-21T07:26:56.045Z,12.10
2022-09-21T07:28:29.110Z,12.00
2022-09-21T07:30:03.824Z,12.20
2022-09-21T07:31:37.072Z,11.80
2022-09-21T07:33:10.795Z,11.80
2022-09-21T07:34:43.848Z,12.00
2022-09-21T07:36:17.841Z,11.80
2022-09-21T07:37:50.903Z,11.70
2022-09-21T07:39:23.926Z,11.70
2022-09-21T07:40:57.120Z,11.80
2022-09-21T07:42:30.216Z,12.00
2022-09-21T07:44:03.687Z,12.10
2022-09-21T07:45:38.256Z,12.00
2022-09-21T07:47:13.361Z,12.00
2022-09-21T07:48:46.576Z,12.20
2022-09-21T07:50:19.938Z,12.40
2022-09-21T07:51:53.813Z,12.60
2022-09-21T07:53:26.842Z,12.80
2022-09-21T07:54:59.904Z,12.80
2022-09-21T07:56:32.990Z,13.00
2022-09-21T07:58:23.508Z,13.30
2022-09-21T07:59:58.304Z,13.10
2022-09-21T08:01:33.851Z,13.10
2022-09-21T08:03:07.259Z,13.10
2022-09-21T08:04:40.304Z,13.30
2022-09-21T08:06:13.369Z,13.60
2022-09-21T08:07:46.540Z,13.80
2022-09-21T08:09:19.564Z,14.10
2022-09-21T08:10:53.021Z,14.00
2022-09-21T08:12:26.081Z,13.70
2022-09-21T08:14:01.515Z,13.90
2022-09-21T08:15:49.336Z,14.20
2022-09-21T08:17:24.876Z,14.40
2022-09-21T08:18:58.374Z,14.40
2022-09-21T08:20:31.421Z,14.30
2022-09-21T08:22:04.448Z,14.30
2022-09-21T08:23:40.210Z,14.80
2022-09-21T08:25:13.332Z,14.90
2022-09-21T08:26:46.395Z,15.00
2022-09-21T08:28:19.711Z,15.00
2022-09-21T08:29:52.745Z,15.40
2022-09-21T08:31:26.952Z,15.40
2022-09-21T08:33:01.394Z,15.70
2022-09-21T08:34:34.446Z,15.80
2022-09-21T08:36:07.985Z,15.80
2022-09-21T08:37:41.249Z,15.90
2022-09-21T08:39:14.275Z,14.80
2022-09-21T08:40:48.006Z,15.30
2022-09-21T08:42:45.484Z,15.30
2022-09-21T08:44:24.812Z,13.40
2022-09-21T08:46:01.406Z,12.80
2022-09-21T08:47:43.504Z,12.80
2022-09-21T08:49:20.513Z,13.10
2022-09-21T08:50:56.099Z,12.90
2022-09-21T08:52:29.401Z,13.10
2022-09-21T08:54:08.135Z,12.90
2022-09-21T08:55:41.324Z,13.40
2022-09-21T08:57:15.359Z,13.50
2022-09-21T08:58:48.583Z,13.40
2022-09-21T09:00:23.015Z,13.20
2022-09-21T09:02:05.492Z,13.10
2022-09-21T09:04:04.083Z,13.30
2022-09-21T09:05:49.348Z,13.80
2022-09-21T09:07:36.439Z,14.30
2022-09-21T09:09:24.636Z,14.90
2022-09-21T09:11:10.157Z,14.80
2022-09-21T09:12:54.878Z,15.00
2022-09-21T09:14:59.409Z,15.00
2022-09-21T09:16:40.455Z,15.60
2022-09-21T09:18:19.452Z,16.30
2022-09-21T09:19:58.487Z,16.30
2022-09-21T09:21:36.423Z,16.50
2022-09-21T09:23:16.096Z,16.00
2022-09-21T09:24:51.074Z,14.60
2022-09-21T09:26:29.930Z,14.90
2022-09-21T09:28:14.353Z,15.40
2022-09-21T09:29:54.294Z,15.60
2022-09-21T09:31:32.495Z,16.10
2022-09-21T09:33:12.621Z,16.10
2022-09-21T09:34:53.828Z,15.70
2022-09-21T09:36:56.745Z,15.40
2022-09-21T09:38:30.292Z,14.90
2022-09-21T09:40:04.191Z,14.80
2022-09-21T09:41:58.125Z,15.00
2022-09-21T09:43:43.280Z,15.60
2022-09-21T09:45:33.580Z,16.70
2022-09-21T09:47:17.124Z,17.50
2022-09-21T09:49:14.573Z,18.40
2022-09-21T09:50:47.815Z,19.70
2022-09-21T09:52:21.069Z,20.20
2022-09-21T09:54:00.568Z,19.00
2022-09-21T09:55:39.243Z,19.00
2022-09-21T09:57:13.567Z,18.30
2022-09-21T09:58:51.660Z,18.30
2022-09-21T10:00:24.694Z,16.90
2022-09-21T10:02:03.696Z,15.70
2022-09-21T10:03:37.357Z,15.10
2022-09-21T10:05:22.447Z,15.10
2022-09-21T10:06:55.571Z,15.00
2022-09-21T10:08:41.979Z,15.30
2022-09-21T10:10:38.311Z,15.00
2022-09-21T10:12:24.823Z,14.80
2022-09-21T10:14:10.245Z,14.50
2022-09-21T10:15:46.888Z,14.10
2022-09-21T10:17:20.589Z,14.10
2022-09-21T10:18:58.800Z,14.10
2022-09-21T10:20:33.002Z,14.00
2022-09-21T10:22:06.741Z,14.10
2022-09-21T10:23:39.893Z,14.30
2022-09-21T10:25:17.713Z,14.40
2022-09-21T10:26:56.431Z,14.80
2022-09-21T10:28:30.990Z,15.60
2022-09-21T10:30:04.630Z,16.10
2022-09-21T10:31:37.741Z,17.00
2022-09-21T10:33:21.120Z,17.80
2022-09-21T10:35:15.536Z,18.20
2022-09-21T10:36:52.677Z,17.80
2022-09-21T10:38:28.431Z,18.30
2022-09-21T10:40:01.792Z,17.60
2022-09-21T10:41:34.975Z,17.00
2022-09-21T10:43:24.801Z,16.10
2022-09-21T10:45:07.815Z,15.80
2022-09-21T10:46:41.013Z,16.80
2022-09-21T10:48:16.658Z,18.00
2022-09-21T10:49:52.139Z,18.90
2022-09-21T10:51:30.152Z,18.60
2022-09-21T10:53:13.505Z,18.50
2022-09-21T10:54:52.071Z,17.90
2022-09-21T10:56:25.639Z,17.70
2022-09-21T10:57:59.020Z,17.70
2022-09-21T10:59:34.906Z,16.30
2022-09-21T11:01:22.348Z,16.20
2022-09-21T11:02:56.186Z,16.40
2022-09-21T11:04:49.292Z,16.60
2022-09-21T11:06:26.040Z,17.10
2022-09-21T11:08:04.006Z,16.20
2022-09-21T11:09:42.961Z,15.70
2022-09-21T11:11:30.059Z,15.30
2022-09-21T11:13:18.376Z,15.10
2022-09-21T11:14:59.694Z,15.50
2022-09-21T11:16:38.011Z,15.40
2022-09-21T11:18:19.701Z,15.30
2022-09-21T11:19:58.600Z,16.10
2022-09-21T11:21:36.691Z,16.70
2022-09-21T11:23:17.963Z,16.60
2022-09-21T11:24:59.448Z,17.20
2022-09-21T11:26:40.735Z,18.20
2022-09-21T11:28:28.066Z,18.90
2022-09-21T11:30:05.555Z,18.80
2022-09-21T11:32:08.592Z,20.10
2022-09-21T11:34:08.776Z,18.50
2022-09-21T11:35:48.903Z,18.10
2022-09-21T11:37:34.649Z,17.50
2022-09-21T11:39:15.729Z,16.40
2022-09-21T11:41:10.091Z,15.60
2022-09-21T11:43:07.436Z,15.50
2022-09-21T11:44:55.882Z,15.20
2022-09-21T11:46:38.022Z,15.50
2022-09-21T11:48:24.023Z,15.20
2022-09-21T11:50:30.321Z,14.90
2022-09-21T11:52:21.163Z,14.90
2022-09-21T11:54:28.772Z,15.20
2022-09-21T11:56:42.538Z,15.80
2022-09-21T11:58:24.265Z,15.80
2022-09-21T12:00:07.225Z,15.60
2022-09-21T12:01:51.580Z,15.80
2022-09-21T12:03:56.386Z,15.60
2022-09-21T12:05:33.941Z,15.80
2022-09-21T12:07:31.509Z,17.50
2022-09-21T12:09:30.539Z,17.20
2022-09-21T12:11:13.466Z,17.40
2022-09-21T12:12:54.278Z,16.90
2022-09-21T12:14:33.647Z,15.80
2022-09-21T12:16:13.031Z,15.40
2022-09-21T12:17:55.311Z,15.50
2022-09-21T12:19:39.773Z,15.70
2022-09-21T12:21:19.448Z,15.70
2022-09-21T12:23:01.316Z,15.90
2022-09-21T12:24:40.838Z,17.00
2022-09-21T12:26:18.758Z,18.70
2022-09-21T12:27:55.700Z,19.40
2022-09-21T12:29:35.004Z,19.80
2022-09-21T12:31:12.997Z,19.70
2022-09-21T12:32:55.569Z,18.50
2022-09-21T12:34:35.186Z,17.10
2022-09-21T12:36:14.646Z,16.10
2022-09-21T12:37:50.765Z,15.80
2022-09-21T12:39:29.775Z,15.90
2022-09-21T12:41:11.302Z,15.80
2022-09-21T12:42:49.637Z,16.00
2022-09-21T12:44:29.886Z,15.90
2022-09-21T12:46:06.523Z,15.90
2022-09-21T12:47:53.632Z,15.60
2022-09-21T12:49:33.133Z,15.60
2022-09-21T12:51:13.306Z,15.90
2022-09-21T12:52:46.437Z,16.70
2022-09-21T12:54:30.672Z,17.20
2022-09-21T12:56:09.987Z,17.10
2022-09-21T12:58:14.094Z,16.90
2022-09-21T12:59:54.078Z,17.40
2022-09-21T13:01:33.478Z,17.30
2022-09-21T13:03:14.615Z,16.80
2022-09-21T13:04:56.638Z,16.70
2022-09-21T13:06:56.313Z,16.40
2022-09-21T13:08:33.190Z,16.50
2022-09-21T13:10:16.599Z,16.80
2022-09-21T13:11:54.483Z,16.80
2022-09-21T13:13:32.305Z,17.40
2022-09-21T13:15:15.830Z,17.70
2022-09-21T13:16:57.581Z,17.50
2022-09-21T13:18:36.250Z,17.80
2022-09-21T13:20:19.358Z,18.40
2022-09-21T13:22:19.740Z,19.10
2022-09-21T13:23:56.401Z,19.40
2022-09-21T13:25:32.611Z,18.10
2022-09-21T13:27:08.063Z,17.60
2022-09-21T13:28:46.305Z,17.00
2022-09-21T13:30:32.550Z,16.60
2022-09-21T13:32:24.028Z,16.80
2022-09-21T13:34:27.208Z,17.40
2022-09-21T13:36:09.449Z,18.30
2022-09-21T13:37:42.747Z,18.70
2022-09-21T13:39:17.775Z,18.10
2022-09-21T13:40:57.656Z,18.20
2022-09-21T13:42:48.013Z,17.70
2022-09-21T13:44:38.081Z,17.80
2022-09-21T13:46:11.288Z,17.20
2022-09-21T13:47:47.215Z,16.90
2022-09-21T13:49:31.658Z,16.60
2022-09-21T13:51:10.087Z,16.50
2022-09-21T13:52:46.546Z,16.10
2022-09-21T13:54:25.255Z,16.10
2022-09-21T13:56:03.232Z,16.20
2022-09-21T13:57:40.976Z,15.70
2022-09-21T13:59:24.478Z,15.80
2022-09-21T14:00:59.857Z,15.70
2022-09-21T14:02:37.663Z,15.70
2022-09-21T14:04:23.626Z,16.10
2022-09-21T14:06:07.420Z,16.20
2022-09-21T14:09:25.776Z,17.60
2022-09-21T14:11:03.101Z,17.90
2022-09-21T14:12:45.499Z,17.80
2022-09-21T14:14:27.660Z,17.20
2022-09-21T14:16:45.566Z,17.00
2022-09-21T14:18:22.595Z,17.10
2022-09-21T14:20:07.132Z,17.80
2022-09-21T14:22:01.811Z,17.70
2022-09-21T14:23:35.357Z,17.30
2022-09-21T14:25:29.049Z,16.90
2022-09-21T14:27:14.555Z,16.70
2022-09-21T14:28:52.146Z,16.70
2022-09-21T14:30:28.047Z,16.50
2022-09-21T14:32:03.863Z,16.20
2022-09-21T14:33:45.891Z,15.90
2022-09-21T14:35:21.487Z,15.80
2022-09-21T14:36:59.814Z,15.60
2022-09-21T14:38:40.863Z,15.40
2022-09-21T14:40:19.909Z,14.70
2022-09-21T14:41:56.732Z,14.30
2022-09-21T14:43:35.235Z,14.20
2022-09-21T14:45:18.089Z,14.20
2022-09-21T14:47:10.516Z,14.20
2022-09-21T14:48:55.070Z,14.00
2022-09-21T14:50:36.042Z,13.90
2022-09-21T14:52:32.092Z,13.80
2022-09-21T14:54:32.334Z,13.70
2022-09-21T14:56:40.865Z,13.70
2022-09-21T14:58:28.607Z,13.80
2022-09-21T15:00:20.750Z,13.80
2022-09-21T15:01:59.661Z,13.70
2022-09-21T15:03:49.622Z,13.50
2022-09-21T15:05:30.920Z,13.50
2022-09-21T15:07:40.755Z,13.50
2022-09-21T15:09:56.069Z,13.50
2022-09-21T15:11:34.035Z,13.40
2022-09-21T15:13:20.343Z,13.40
2022-09-21T15:15:01.396Z,13.40
2022-09-21T15:16:40.811Z,13.30
2022-09-21T15:18:20.090Z,13.30
2022-09-21T15:19:54.006Z,13.30
2022-09-21T15:21:29.514Z,13.30
2022-09-21T15:23:05.765Z,13.30
2022-09-21T15:24:49.209Z,13.20
2022-09-21T15:26:26.636Z,13.20
2022-09-21T15:28:00.382Z,13.30
2022-09-21T15:29:34.736Z,13.30
2022-09-21T15:31:08.330Z,13.30
2022-09-21T15:32:43.403Z,13.30
2022-09-21T15:34:16.893Z,13.30
2022-09-21T15:35:54.470Z,13.40
2022-09-21T15:37:28.361Z,13.40
2022-09-21T15:39:02.940Z,13.50
2022-09-21T15:40:38.216Z,13.50
2022-09-21T15:42:22.731Z,13.50
2022-09-21T15:44:13.194Z,13.50
2022-09-21T15:45:51.676Z,13.50
2022-09-21T15:47:29.027Z,13.50
2022-09-21T15:49:02.122Z,13.50
2022-09-21T15:50:36.884Z,13.60
2022-09-21T15:52:14.275Z,13.50
2022-09-21T15:53:50.719Z,13.50
2022-09-21T15:55:25.514Z,13.50
2022-09-21T15:56:59.636Z,13.50
2022-09-21T15:58:35.749Z,13.40
2022-09-21T16:00:20.628Z,13.40
2022-09-21T16:01:55.971Z,13.30
2022-09-21T16:03:29.148Z,13.30
2022-09-21T16:05:03.013Z,13.30
2022-09-21T16:06:39.129Z,13.30
2022-09-21T16:08:23.454Z,13.40
2022-09-21T16:09:56.600Z,13.40
2022-09-21T16:11:37.696Z,13.40
2022-09-21T16:13:36.765Z,13.50
2022-09-21T16:15:24.219Z,13.50
2022-09-21T16:17:22.864Z,13.40
2022-09-21T16:18:59.554Z,13.50
2022-09-21T16:20:45.029Z,13.50
2022-09-21T16:22:22.664Z,13.50
2022-09-21T16:23:58.050Z,13.50
2022-09-21T16:25:37.167Z,13.40
2022-09-21T16:27:17.555Z,13.40
2022-09-21T16:28:58.881Z,13.30
2022-09-21T16:30:51.121Z,13.30
2022-09-21T16:32:31.867Z,13.20
2022-09-21T16:34:33.004Z,13.20
2022-09-21T16:36:32.392Z,13.10
2022-09-21T16:38:09.943Z,13.00
2022-09-21T16:39:43.071Z,12.80
2022-09-21T16:41:16.142Z,12.70
2022-09-21T16:42:50.572Z,12.50
2022-09-21T16:44:26.102Z,12.40
2022-09-21T16:45:59.484Z,12.20
2022-09-21T16:47:37.677Z,12.10
2022-09-21T16:49:15.421Z,12.00
2022-09-21T16:50:53.872Z,11.90
2022-09-21T16:52:28.222Z,11.80
2022-09-21T16:54:02.869Z,11.70
2022-09-21T16:55:36.229Z,11.70
2022-09-21T16:57:13.270Z,11.50
2022-09-21T16:58:47.147Z,11.40
2022-09-21T17:00:20.648Z,11.30
2022-09-21T17:01:56.572Z,11.20
2022-09-21T17:03:31.584Z,11.10
2022-09-21T17:05:04.749Z,10.90
2022-09-21T17:06:38.193Z,10.80
2022-09-21T17:08:12.245Z,10.70
2022-09-21T17:09:47.766Z,10.60
2022-09-21T17:11:21.212Z,10.50
2022-09-21T17:12:54.219Z,10.40
2022-09-21T17:14:32.391Z,10.40
2022-09-21T17:16:05.768Z,10.30
2022-09-21T17:17:39.036Z,10.20
2022-09-21T17:19:12.058Z,10.20
2022-09-21T17:20:47.371Z,10.10
2022-09-21T17:22:21.839Z,10.00
2022-09-21T17:23:54.876Z,9.90
2022-09-21T17:25:29.248Z,9.80
2022-09-21T17:27:02.588Z,9.80
2022-09-21T17:28:35.591Z,9.80
2022-09-21T17:30:15.652Z,9.70
2022-09-21T17:31:51.068Z,9.60
2022-09-21T17:33:25.298Z,9.60
2022-09-21T17:35:01.709Z,9.40
2022-09-21T17:36:33.745Z,9.30
2022-09-21T17:38:12.412Z,9.30
2022-09-21T17:39:48.479Z,9.20
2022-09-21T17:41:26.678Z,9.20
2022-09-21T17:43:08.094Z,9.10
2022-09-21T17:44:55.049Z,9.00
2022-09-21T17:46:37.946Z,8.90
2022-09-21T17:48:18.619Z,8.80
2022-09-21T17:49:52.457Z,8.80
2022-09-21T17:51:43.731Z,8.70
2022-09-21T17:53:37.276Z,8.70
2022-09-21T17:55:13.232Z,8.70
2022-09-21T17:56:52.234Z,8.70
2022-09-21T17:58:45.459Z,8.60
2022-09-21T18:00:22.381Z,8.60
2022-09-21T18:01:59.323Z,8.60
2022-09-21T18:03:35.921Z,8.50
2022-09-21T18:05:19.827Z,8.50
2022-09-21T18:06:53.766Z,8.50
2022-09-21T18:08:28.128Z,8.50
2022-09-21T18:10:01.647Z,8.40
2022-09-21T18:12:10.576Z,8.40
2022-09-21T18:13:53.987Z,8.40
2022-09-21T18:15:34.776Z,8.40
2022-09-21T18:17:24.763Z,8.30
2022-09-21T18:19:05.611Z,8.30
2022-09-21T18:20:48.126Z,8.20
2022-09-21T18:22:31.506Z,8.30
2022-09-21T18:24:16.330Z,8.20
2022-09-21T18:25:54.025Z,8.20
2022-09-21T18:27:27.529Z,8.20
2022-09-21T18:29:12.616Z,8.10
2022-09-21T18:31:00.924Z,8.10
2022-09-21T18:32:56.954Z,8.00
2022-09-21T18:35:05.041Z,8.00
2022-09-21T18:36:46.139Z,8.00
2022-09-21T18:38:26.205Z,7.90
2022-09-21T18:40:09.877Z,7.90
2022-09-21T18:41:50.894Z,7.90
2022-09-21T18:43:32.331Z,7.90
2022-09-21T18:45:12.026Z,7.90
2022-09-21T18:46:56.873Z,7.90
2022-09-21T18:48:48.545Z,7.80
2022-09-21T18:50:31.520Z,7.80
2022-09-21T18:52:11.868Z,7.90
2022-09-21T18:53:48.095Z,7.80
2022-09-21T18:55:26.828Z,7.90
2022-09-21T18:57:00.303Z,7.90
2022-09-21T18:58:34.004Z,7.90
2022-09-21T19:00:12.148Z,7.80
2022-09-21T19:01:47.328Z,7.70
2022-09-21T19:03:21.493Z,7.60
2022-09-21T19:04:58.755Z,7.70
2022-09-21T19:06:46.827Z,7.60
2022-09-21T19:08:30.292Z,7.60
2022-09-21T19:10:16.510Z,7.50
2022-09-21T19:11:58.206Z,7.50
2022-09-21T19:13:45.754Z,7.40
2022-09-21T19:15:55.460Z,7.40
2022-09-21T19:17:34.528Z,7.40
2022-09-21T19:19:20.146Z,7.30
2022-09-21T19:21:02.956Z,7.40
2022-09-21T19:22:46.476Z,7.30
2022-09-21T19:24:25.840Z,7.30
2022-09-21T19:26:05.156Z,7.20
2022-09-21T19:27:40.140Z,7.30
2022-09-21T19:29:30.048Z,7.30
2022-09-21T19:31:08.950Z,7.20
2022-09-21T19:32:46.533Z,7.10
2022-09-21T19:34:20.618Z,7.10
2022-09-21T19:35:53.996Z,7.10
2022-09-21T19:37:28.570Z,7.10
2022-09-21T19:39:01.929Z,7.00
2022-09-21T19:40:38.991Z,7.00
2022-09-21T19:42:29.271Z,7.00
2022-09-21T19:44:12.435Z,7.00
2022-09-21T19:46:04.912Z,7.00
2022-09-21T19:47:46.440Z,6.90
2022-09-21T19:49:22.149Z,6.90
2022-09-21T19:50:58.709Z,6.90
2022-09-21T19:52:36.342Z,6.80
2022-09-21T19:54:31.648Z,6.80
2022-09-21T19:56:29.330Z,6.70
2022-09-21T19:58:20.883Z,6.80
2022-09-21T19:59:54.559Z,6.70
2022-09-21T20:01:28.764Z,6.70
2022-09-21T20:03:05.788Z,6.70
2022-09-21T20:04:45.959Z,6.70
2022-09-21T20:06:22.280Z,6.70
2022-09-21T20:08:04.308Z,6.70
2022-09-21T20:09:44.896Z,6.70
2022-09-21T20:11:25.342Z,6.70
2022-09-21T20:13:08.170Z,6.70
2022-09-21T20:14:45.023Z,6.60
2022-09-21T20:16:31.624Z,6.60
2022-09-21T20:18:11.956Z,6.40
2022-09-21T20:19:51.099Z,6.90
2022-09-21T20:21:28.407Z,6.30
2022-09-21T20:23:03.516Z,6.30
2022-09-21T20:24:44.894Z,6.30
2022-09-21T20:26:25.498Z,6.30
2022-09-21T20:27:59.200Z,6.30
2022-09-21T20:29:32.259Z,6.30
2022-09-21T20:31:05.829Z,6.30
2022-09-21T20:32:42.233Z,6.30
2022-09-21T20:34:15.594Z,6.30
2022-09-21T20:35:48.670Z,6.20
2022-09-21T20:37:23.609Z,6.20
2022-09-21T20:38:59.568Z,6.20
2022-09-21T20:40:32.893Z,6.20
2022-09-21T20:42:05.367Z,6.30
2022-09-21T20:43:38.380Z,6.30
2022-09-21T20:45:13.570Z,6.30
2022-09-21T20:46:46.636Z,6.30
2022-09-21T20:48:20.008Z,6.30
2022-09-21T20:49:53.039Z,6.20
2022-09-21T20:51:27.664Z,6.30
2022-09-21T20:53:00.731Z,6.30
2022-09-21T20:54:35.611Z,6.30
2022-09-21T20:56:08.881Z,6.30
2022-09-21T20:57:42.215Z,6.30
2022-09-21T20:59:15.265Z,6.30
2022-09-21T21:00:48.704Z,6.20
2022-09-21T21:02:21.805Z,6.30
2022-09-21T21:04:01.515Z,6.20
2022-09-21T21:05:34.700Z,6.20
2022-09-21T21:07:07.865Z,6.20
2022-09-21T21:08:41.185Z,6.20
2022-09-21T21:10:17.337Z,6.20
2022-09-21T21:11:50.365Z,6.10
2022-09-21T21:13:23.544Z,6.20
2022-09-21T21:14:58.660Z,6.10
2022-09-21T21:16:31.810Z,6.10
2022-09-21T21:18:05.047Z,6.20
2022-09-21T21:19:38.093Z,6.20
2022-09-21T21:21:11.160Z,6.20
2022-09-21T21:22:44.473Z,6.30
2022-09-21T21:24:35.010Z,6.40
2022-09-21T21:26:10.273Z,6.50
2022-09-21T21:27:43.291Z,6.50
2022-09-21T21:29:16.324Z,6.60
2022-09-21T21:30:53.727Z,6.70
2022-09-21T21:32:27.527Z,6.80
2022-09-21T21:33:59.764Z,6.80
2022-09-21T21:35:32.783Z,6.80